createdAt,value
2019-02-07T00:01:10.405Z,7.00
2019-02-07T00:03:51.473Z,7.00
2019-02-07T00:06:32.199Z,7.10
2019-02-07T00:09:12.960Z,7.10
2019-02-07T00:11:53.623Z,7.10
2019-02-07T00:14:39.775Z,7.10
2019-02-07T00:17:16.820Z,7.10
2019-02-07T00:19:57.933Z,7.10
2019-02-07T00:22:39.308Z,7.10
2019-02-07T00:25:20.211Z,7.10
2019-02-07T00:28:01.263Z,7.10
2019-02-07T00:30:42.146Z,7.10
2019-02-07T00:33:23.380Z,7.10
2019-02-07T00:36:05.895Z,7.20
2019-02-07T00:41:29.902Z,7.20
2019-02-07T00:44:10.978Z,7.20
2019-02-07T00:46:52.294Z,7.20
2019-02-07T00:49:33.007Z,7.30
2019-02-07T00:52:14.261Z,7.20
2019-02-07T00:54:58.186Z,7.20
2019-02-07T00:57:38.686Z,7.20
2019-02-07T01:00:20.102Z,7.30
2019-02-07T01:03:00.746Z,7.30
2019-02-07T01:05:41.331Z,7.30
2019-02-07T01:08:22.849Z,7.20
2019-02-07T01:11:04.034Z,7.20
2019-02-07T01:13:43.460Z,7.30
2019-02-07T01:16:24.352Z,7.30
2019-02-07T01:19:05.153Z,7.30
2019-02-07T01:21:46.393Z,7.30
2019-02-07T01:24:27.002Z,7.30
2019-02-07T01:27:07.696Z,7.30
2019-02-07T01:29:48.976Z,7.30
2019-02-07T01:32:29.689Z,7.30
2019-02-07T01:35:10.750Z,7.30
2019-02-07T01:37:52.220Z,7.30
2019-02-07T01:40:33.996Z,7.30
2019-02-07T01:43:15.199Z,7.30
2019-02-07T01:45:58.419Z,7.30
2019-02-07T01:48:35.639Z,7.30
2019-02-07T01:51:23.949Z,7.30
2019-02-07T01:53:53.315Z,7.30
2019-02-07T01:56:22.747Z,7.30
2019-02-07T01:59:03.740Z,7.30
2019-02-07T02:01:45.277Z,7.30
2019-02-07T02:04:26.659Z,7.30
2019-02-07T02:07:07.455Z,7.30
2019-02-07T02:09:48.789Z,7.40
2019-02-07T02:12:30.065Z,7.40
2019-02-07T02:15:11.091Z,7.40
2019-02-07T02:17:51.110Z,7.40
2019-02-07T02:20:39.447Z,7.40
2019-02-07T02:23:20.362Z,7.40
2019-02-07T02:26:01.752Z,7.40
2019-02-07T02:28:42.618Z,7.40
2019-02-07T02:31:24.070Z,7.40
2019-02-07T02:34:05.210Z,7.50
2019-02-07T02:36:46.524Z,7.50
2019-02-07T02:39:27.861Z,7.50
2019-02-07T02:42:08.426Z,7.50
2019-02-07T02:44:50.042Z,7.50
2019-02-07T02:47:31.329Z,7.60
2019-02-07T02:50:12.102Z,7.50
2019-02-07T02:52:53.352Z,7.50
2019-02-07T02:55:36.194Z,7.50
2019-02-07T02:58:17.344Z,7.60
2019-02-07T03:04:26.448Z,7.60
2019-02-07T03:07:25.404Z,7.60
2019-02-07T03:10:25.636Z,7.60
2019-02-07T03:13:25.886Z,7.60
2019-02-07T03:16:25.499Z,7.60
2019-02-07T03:19:25.784Z,7.60
2019-02-07T03:22:26.230Z,7.60
2019-02-07T03:25:26.602Z,7.60
2019-02-07T03:28:34.020Z,7.60
2019-02-07T03:31:36.897Z,7.60
2019-02-07T03:34:37.071Z,7.60
2019-02-07T03:37:37.548Z,7.60
2019-02-07T03:40:36.050Z,7.60
2019-02-07T03:43:37.406Z,7.60
2019-02-07T03:46:37.694Z,7.70
2019-02-07T03:49:24.461Z,7.60
2019-02-07T03:52:27.380Z,7.60
2019-02-07T03:55:27.429Z,7.60
2019-02-07T03:58:20.559Z,7.70
2019-02-07T04:01:20.553Z,7.70
2019-02-07T04:04:20.604Z,7.70
2019-02-07T04:07:20.111Z,7.70
2019-02-07T04:10:19.769Z,7.70
2019-02-07T04:13:20.075Z,7.70
2019-02-07T04:16:19.635Z,7.80
2019-02-07T04:19:20.088Z,7.80
2019-02-07T04:22:20.283Z,7.80
2019-02-07T04:25:17.351Z,7.80
2019-02-07T04:28:16.915Z,7.80
2019-02-07T04:31:17.006Z,7.90
2019-02-07T04:34:17.133Z,7.90
2019-02-07T04:37:15.494Z,7.90
2019-02-07T04:40:23.418Z,7.90
2019-02-07T04:43:23.631Z,7.90
2019-02-07T04:46:27.118Z,8.00
2019-02-07T04:49:17.151Z,8.00
2019-02-07T04:52:17.255Z,8.00
2019-02-07T04:55:17.633Z,8.00
2019-02-07T04:58:23.979Z,8.00
2019-02-07T05:01:11.938Z,8.00
2019-02-07T05:04:12.128Z,8.00
2019-02-07T05:07:11.740Z,8.00
2019-02-07T05:10:11.915Z,8.10
2019-02-07T05:16:10.653Z,8.00
2019-02-07T05:19:16.794Z,8.00
2019-02-07T05:22:18.694Z,8.10
2019-02-07T05:25:19.187Z,8.10
2019-02-07T05:28:03.454Z,8.10
2019-02-07T05:31:03.822Z,8.10
2019-02-07T05:34:04.314Z,8.10
2019-02-07T05:37:05.927Z,8.10
2019-02-07T05:40:11.817Z,8.10
2019-02-07T05:46:16.412Z,8.20
2019-02-07T05:52:22.592Z,8.20
2019-02-07T05:55:18.264Z,8.30
2019-02-07T05:58:18.398Z,8.30
2019-02-07T06:01:13.500Z,8.30
2019-02-07T06:04:16.667Z,8.30
2019-02-07T06:07:03.607Z,8.40
2019-02-07T06:10:03.583Z,8.40
2019-02-07T06:13:03.756Z,8.40
2019-02-07T06:16:04.234Z,8.50
2019-02-07T06:19:05.402Z,8.50
2019-02-07T06:21:55.681Z,8.50
2019-02-07T06:24:58.316Z,8.50
2019-02-07T06:27:57.967Z,8.50
2019-02-07T06:30:58.365Z,8.60
2019-02-07T06:33:59.616Z,8.60
2019-02-07T06:37:01.763Z,8.60
2019-02-07T06:40:04.585Z,8.60
2019-02-07T06:42:53.560Z,8.60
2019-02-07T06:45:53.858Z,8.60
2019-02-07T06:48:52.293Z,8.70
2019-02-07T06:51:59.929Z,8.70
2019-02-07T06:54:57.100Z,8.80
2019-02-07T06:58:00.527Z,8.80
2019-02-07T07:00:58.162Z,8.80
2019-02-07T07:03:49.551Z,8.80
2019-02-07T07:06:39.660Z,8.80
2019-02-07T07:09:45.269Z,8.80
2019-02-07T07:12:33.855Z,8.70
2019-02-07T07:15:22.455Z,8.70
2019-02-07T07:18:10.995Z,8.60
2019-02-07T07:21:11.957Z,8.60
2019-02-07T07:24:12.123Z,8.50
2019-02-07T07:27:02.205Z,8.40
2019-02-07T07:30:02.441Z,8.30
2019-02-07T07:33:02.748Z,8.30
2019-02-07T07:35:54.840Z,8.20
2019-02-07T07:38:57.508Z,8.20
2019-02-07T07:41:57.428Z,8.20
2019-02-07T07:45:03.180Z,8.10
2019-02-07T07:48:05.216Z,8.10
2019-02-07T07:51:05.166Z,8.10
2019-02-07T07:54:08.619Z,8.10
2019-02-07T07:57:08.916Z,8.00
2019-02-07T07:59:59.700Z,8.00
2019-02-07T08:02:59.901Z,7.90
2019-02-07T08:05:59.458Z,7.90
2019-02-07T08:08:59.532Z,7.80
2019-02-07T08:12:05.113Z,7.80
2019-02-07T08:15:05.234Z,7.80
2019-02-07T08:18:05.303Z,7.70
2019-02-07T08:21:05.074Z,7.70
2019-02-07T08:24:08.303Z,7.70
2019-02-07T08:27:08.076Z,7.80
2019-02-07T08:30:07.778Z,7.80
2019-02-07T08:33:02.629Z,7.80
2019-02-07T08:36:02.751Z,7.90
2019-02-07T08:38:56.120Z,7.90
2019-02-07T08:41:57.501Z,8.00
2019-02-07T08:44:57.946Z,8.00
2019-02-07T08:47:46.259Z,8.10
2019-02-07T08:50:53.671Z,8.10
2019-02-07T08:53:52.182Z,8.20
2019-02-07T08:56:57.379Z,8.20
2019-02-07T09:03:07.086Z,8.20
2019-02-07T09:06:08.887Z,8.30
2019-02-07T09:09:09.132Z,8.30
2019-02-07T09:12:14.926Z,8.30
2019-02-07T09:15:19.143Z,8.30
2019-02-07T09:18:14.285Z,8.30
2019-02-07T09:21:14.167Z,8.30
2019-02-07T09:24:13.791Z,8.20
2019-02-07T09:27:17.133Z,8.20
2019-02-07T09:30:17.385Z,8.20
2019-02-07T09:33:17.716Z,8.20
2019-02-07T09:36:10.050Z,8.30
2019-02-07T09:39:09.456Z,8.30
2019-02-07T09:42:12.004Z,8.40
2019-02-07T09:45:08.078Z,8.40
2019-02-07T09:48:21.642Z,8.40
2019-02-07T09:51:23.052Z,8.40
2019-02-07T09:54:26.268Z,8.40
2019-02-07T09:57:13.710Z,8.40
2019-02-07T10:00:20.096Z,8.40
2019-02-07T10:03:19.659Z,8.40
2019-02-07T10:06:19.231Z,8.40
2019-02-07T10:12:33.978Z,8.50
2019-02-07T10:15:30.487Z,8.70
2019-02-07T10:18:33.049Z,8.70
2019-02-07T10:21:32.904Z,8.70
2019-02-07T10:24:33.384Z,8.80
2019-02-07T10:27:33.766Z,9.00
2019-02-07T10:30:27.893Z,9.00
2019-02-07T10:33:27.682Z,9.10
2019-02-07T10:36:27.910Z,9.00
2019-02-07T10:39:27.554Z,9.00
2019-02-07T10:42:29.266Z,9.00
2019-02-07T10:45:29.277Z,9.00
2019-02-07T10:48:29.695Z,9.10
2019-02-07T10:51:21.987Z,9.00
2019-02-07T10:54:24.877Z,9.10
2019-02-07T11:00:25.281Z,9.10
2019-02-07T11:03:25.762Z,9.10
2019-02-07T11:06:26.056Z,9.20
2019-02-07T11:09:26.307Z,9.30
2019-02-07T11:12:26.697Z,9.40
2019-02-07T11:15:41.430Z,9.50
2019-02-07T11:18:30.877Z,9.50
2019-02-07T11:21:23.439Z,9.50
2019-02-07T11:24:23.663Z,9.40
2019-02-07T11:27:24.115Z,9.60
2019-02-07T11:30:20.199Z,9.70
2019-02-07T11:33:20.402Z,9.90
2019-02-07T11:36:23.974Z,9.90
2019-02-07T11:39:22.702Z,9.90
2019-02-07T11:42:30.095Z,9.90
2019-02-07T11:45:33.934Z,10.00
2019-02-07T11:48:36.796Z,9.90
2019-02-07T11:51:36.839Z,9.90
2019-02-07T11:54:36.796Z,9.80
2019-02-07T11:57:27.912Z,9.90
2019-02-07T12:00:29.138Z,9.90
2019-02-07T12:03:26.300Z,10.00
2019-02-07T12:06:26.387Z,9.90
2019-02-07T12:09:26.103Z,10.00
2019-02-07T12:12:33.484Z,10.00
2019-02-07T12:15:33.401Z,9.90
2019-02-07T12:18:33.773Z,9.90
2019-02-07T12:21:36.504Z,10.00
2019-02-07T12:24:46.714Z,10.00
2019-02-07T12:27:55.418Z,10.00
2019-02-07T12:30:44.448Z,10.00
2019-02-07T12:33:33.276Z,10.10
2019-02-07T12:36:40.654Z,10.10
2019-02-07T12:39:48.074Z,10.10
2019-02-07T12:42:48.495Z,10.10
2019-02-07T12:45:48.342Z,10.10
2019-02-07T12:48:48.419Z,10.00
2019-02-07T12:51:47.924Z,10.00
2019-02-07T12:54:47.787Z,10.00
2019-02-07T12:57:55.370Z,10.10
2019-02-07T13:00:58.081Z,10.10
2019-02-07T13:03:57.839Z,10.10
2019-02-07T13:06:57.631Z,10.10
2019-02-07T13:10:04.922Z,10.10
2019-02-07T13:13:12.359Z,10.10
2019-02-07T13:16:18.529Z,10.20
2019-02-07T13:19:18.231Z,10.30
2019-02-07T13:22:18.601Z,10.30
2019-02-07T13:25:18.875Z,10.30
2019-02-07T13:28:18.842Z,10.30
2019-02-07T13:31:24.986Z,10.30
2019-02-07T13:34:30.432Z,10.30
2019-02-07T13:37:12.123Z,10.20
2019-02-07T13:43:00.163Z,10.20
2019-02-07T13:46:00.739Z,10.20
2019-02-07T13:48:54.468Z,10.20
2019-02-07T13:51:54.885Z,10.20
2019-02-07T13:55:02.968Z,10.20
2019-02-07T13:57:52.510Z,10.20
2019-02-07T14:00:38.847Z,10.10
2019-02-07T14:03:46.244Z,10.10
2019-02-07T14:09:34.140Z,10.10
2019-02-07T14:12:34.362Z,10.20
2019-02-07T14:15:34.738Z,10.20
2019-02-07T14:18:38.379Z,10.20
2019-02-07T14:21:37.987Z,10.10
2019-02-07T14:24:44.103Z,10.00
2019-02-07T14:27:49.766Z,10.00
2019-02-07T14:33:48.034Z,10.00
2019-02-07T14:36:46.582Z,10.10
2019-02-07T14:39:47.916Z,10.00
2019-02-07T14:42:48.397Z,10.00
2019-02-07T14:45:48.174Z,9.90
2019-02-07T14:48:29.285Z,9.90
2019-02-07T14:51:10.018Z,9.90
2019-02-07T14:53:50.677Z,9.80
2019-02-07T14:56:31.890Z,9.80
2019-02-07T14:59:13.070Z,9.70
2019-02-07T15:01:54.035Z,9.70
2019-02-07T15:04:34.489Z,9.60
2019-02-07T15:07:16.407Z,9.60
2019-02-07T15:09:57.165Z,9.60
2019-02-07T15:12:37.944Z,9.70
2019-02-07T15:15:19.965Z,9.70
2019-02-07T15:18:01.325Z,9.70
2019-02-07T15:20:41.839Z,9.70
2019-02-07T15:23:23.051Z,9.70
2019-02-07T15:26:04.397Z,9.70
2019-02-07T15:31:27.941Z,9.50
2019-02-07T15:40:06.304Z,9.60
2019-02-07T15:45:29.634Z,9.40
2019-02-07T15:48:10.970Z,9.40
2019-02-07T15:53:50.570Z,9.30
2019-02-07T15:56:32.328Z,9.30
2019-02-07T16:02:34.242Z,9.20
2019-02-07T16:05:15.504Z,9.10
2019-02-07T16:07:56.886Z,9.00
2019-02-07T16:10:38.192Z,9.00
2019-02-07T16:13:18.881Z,9.00
2019-02-07T16:15:59.748Z,9.10
2019-02-07T16:18:41.912Z,9.10
2019-02-07T16:21:23.487Z,9.00
2019-02-07T16:24:05.201Z,9.00
2019-02-07T16:26:45.891Z,9.00
2019-02-07T16:29:26.571Z,9.00
2019-02-07T16:32:08.222Z,9.00
2019-02-07T16:40:46.322Z,9.10
2019-02-07T16:43:27.757Z,9.00
2019-02-07T16:52:05.439Z,8.90
2019-02-07T16:54:46.825Z,8.90
2019-02-07T16:57:26.318Z,8.80
2019-02-07T17:00:16.043Z,8.80
2019-02-07T17:03:04.716Z,8.80
2019-02-07T17:05:45.563Z,8.70
2019-02-07T17:08:27.434Z,8.70
2019-02-07T17:11:08.649Z,8.70
2019-02-07T17:13:49.163Z,8.70
2019-02-07T17:19:29.269Z,8.60
2019-02-07T17:22:10.085Z,8.60
2019-02-07T17:24:51.686Z,8.70
2019-02-07T17:27:32.987Z,8.70
2019-02-07T17:30:13.914Z,8.60
2019-02-07T17:32:53.384Z,8.60
2019-02-07T17:35:34.442Z,8.60
2019-02-07T17:38:16.053Z,8.60
2019-02-07T17:40:55.459Z,8.50
2019-02-07T17:43:44.007Z,8.50
2019-02-07T17:46:25.234Z,8.50
2019-02-07T17:49:05.110Z,8.40
2019-02-07T17:51:46.338Z,8.40
2019-02-07T17:54:27.702Z,8.40
2019-02-07T17:56:57.390Z,8.40
2019-02-07T17:59:28.027Z,8.40
2019-02-07T18:02:16.504Z,8.40
2019-02-07T18:08:16.318Z,8.40
2019-02-07T18:14:16.356Z,8.40
2019-02-07T18:16:57.638Z,8.40
2019-02-07T18:19:38.736Z,8.40
2019-02-07T18:22:18.164Z,8.40
2019-02-07T18:24:58.956Z,8.40
2019-02-07T18:27:41.940Z,8.40
2019-02-07T18:30:22.252Z,8.30
2019-02-07T18:33:02.842Z,8.40
2019-02-07T18:35:43.794Z,8.30
2019-02-07T18:38:25.234Z,8.30
2019-02-07T18:41:06.463Z,8.30
2019-02-07T18:43:48.446Z,8.30
2019-02-07T18:46:29.763Z,8.20
2019-02-07T18:49:10.923Z,8.00
2019-02-07T18:51:52.384Z,8.20
2019-02-07T18:54:33.344Z,8.20
2019-02-07T18:57:14.580Z,8.10
2019-02-07T18:59:55.686Z,8.10
2019-02-07T19:02:36.442Z,8.10
2019-02-07T19:05:17.708Z,8.10
2019-02-07T19:07:59.717Z,8.10
2019-02-07T19:10:41.121Z,8.10
2019-02-07T19:13:22.679Z,8.10
2019-02-07T19:16:03.803Z,8.00
2019-02-07T19:18:44.631Z,8.00
2019-02-07T19:21:26.007Z,8.00
2019-02-07T19:24:07.629Z,8.00
2019-02-07T19:26:48.503Z,8.00
2019-02-07T19:29:29.391Z,7.90
2019-02-07T19:32:10.041Z,7.90
2019-02-07T19:34:51.507Z,7.90
2019-02-07T19:37:32.015Z,7.90
2019-02-07T19:40:11.767Z,7.90
2019-02-07T19:43:00.096Z,8.00
2019-02-07T19:45:40.850Z,8.00
2019-02-07T19:48:21.447Z,8.00
2019-02-07T19:51:02.976Z,8.00
2019-02-07T19:53:43.645Z,8.00
2019-02-07T19:56:24.498Z,8.00
2019-02-07T19:59:05.583Z,8.00
2019-02-07T20:01:47.082Z,8.10
2019-02-07T20:04:27.918Z,8.00
2019-02-07T20:07:07.448Z,8.10
2019-02-07T20:09:55.752Z,8.10
2019-02-07T20:12:37.444Z,8.00
2019-02-07T20:15:18.496Z,8.00
2019-02-07T20:18:00.108Z,8.00
2019-02-07T20:20:41.423Z,8.10
2019-02-07T20:23:22.415Z,8.10
2019-02-07T20:26:03.670Z,8.00
2019-02-07T20:28:45.140Z,8.00
2019-02-07T20:31:25.952Z,8.00
2019-02-07T20:34:07.386Z,8.00
2019-02-07T20:36:48.676Z,8.00
2019-02-07T20:39:29.404Z,8.10
2019-02-07T20:42:10.742Z,8.10
2019-02-07T20:44:52.092Z,8.10
2019-02-07T20:47:33.379Z,8.10
2019-02-07T20:50:14.280Z,8.00
2019-02-07T20:52:55.080Z,8.00
2019-02-07T20:55:39.673Z,8.00
2019-02-07T20:58:20.418Z,8.00
2019-02-07T21:01:01.449Z,7.90
2019-02-07T21:03:49.914Z,7.90
2019-02-07T21:06:30.532Z,7.90
2019-02-07T21:09:11.395Z,7.80
2019-02-07T21:11:52.643Z,7.80
2019-02-07T21:14:34.109Z,7.70
2019-02-07T21:17:15.387Z,7.60
2019-02-07T21:22:39.120Z,7.60
2019-02-07T21:25:20.125Z,7.60
2019-02-07T21:27:59.890Z,7.60
2019-02-07T21:30:48.745Z,7.60
2019-02-07T21:33:30.376Z,7.50
2019-02-07T21:36:11.553Z,7.60
2019-02-07T21:38:52.789Z,7.60
2019-02-07T21:41:33.596Z,7.60
2019-02-07T21:44:14.405Z,7.60
2019-02-07T21:53:05.921Z,7.70
2019-02-07T21:55:47.742Z,7.60
2019-02-07T21:58:29.248Z,7.50
2019-02-07T22:01:09.909Z,7.40
2019-02-07T22:03:50.819Z,7.40
2019-02-07T22:06:32.256Z,7.40
2019-02-07T22:09:12.356Z,7.50
2019-02-07T22:12:00.643Z,7.50
2019-02-07T22:14:41.408Z,7.50
2019-02-07T22:17:29.818Z,7.40
2019-02-07T22:20:10.408Z,7.40
2019-02-07T22:22:51.127Z,7.40
2019-02-07T22:25:32.064Z,7.40
2019-02-07T22:28:12.583Z,7.40
2019-02-07T22:30:53.588Z,7.40
2019-02-07T22:33:34.203Z,7.40
2019-02-07T22:36:14.984Z,7.40
2019-02-07T22:38:55.638Z,7.30
2019-02-07T22:41:36.234Z,7.30
2019-02-07T22:44:17.105Z,7.30
2019-02-07T22:46:58.392Z,7.30
2019-02-07T22:49:39.055Z,7.30
2019-02-07T22:52:20.262Z,7.30
2019-02-07T22:54:49.677Z,7.30
2019-02-07T22:57:38.003Z,7.20
2019-02-07T23:00:45.735Z,7.30
2019-02-07T23:03:33.988Z,7.20
2019-02-07T23:06:03.433Z,7.20
2019-02-07T23:08:51.693Z,7.20
2019-02-07T23:11:32.397Z,7.20
2019-02-07T23:14:12.935Z,7.10
2019-02-07T23:16:53.765Z,7.10
2019-02-07T23:19:35.107Z,7.00
2019-02-07T23:22:15.816Z,7.00
2019-02-07T23:24:57.083Z,7.00
2019-02-07T23:27:38.001Z,7.00
2019-02-07T23:30:18.725Z,6.90
2019-02-07T23:32:59.613Z,6.90
2019-02-07T23:38:53.468Z,6.80
2019-02-07T23:41:34.195Z,6.70
2019-02-07T23:44:15.569Z,6.60
2019-02-07T23:46:56.814Z,6.60
2019-02-07T23:49:37.613Z,6.60
2019-02-07T23:52:19.003Z,6.50
2019-02-07T23:54:59.633Z,6.40
2019-02-07T23:57:40.237Z,6.40
